Rechercher aéroport 
image banner adimage banner adimage banner ad
image banner ad

24CL - Salyer Farms

Situé à Corcoran, United States

ICAO - 24CL, IATA -

Données fournies par Airmate  

Information générale

Coordonnées: N36°5'19" W119°32'30"
Élévation : 205 feet MSL.
Variation magnétique : 12° East
Voir autres Aéroports à California

Données opérationnelles

Special qualification required
Heure actuelle UTC:
Heure actuelle locale:
Météo à : KHJO - Hanford Muni ( 26 km )
METAR: KHJO 260953Z AUTO 00000KT 6SM BR OVC023 17/16 A2993 RMK AO2 SLP135 T01720156
Voir NOTAMs / SUP AIP / TFR affectant cet aéroport [VIEW]
Fréquences de communication: [VIEW]

Pistes:

Identifiant RWYQFULongueur (ft)Largeur (ft)SurfaceLDA (ft)
14681575ASPH
32681575ASPH

Coordonnées de l'aéroport

Adresse: Corcoran United States

Vue satellite de 24CL